Grand Forks Air Force Base
KRDR : now visible

Airfield :











YOU CAN JOIN US ON...

 
LOGIN :

Register | Disclaimer

   EN    FR    IT 

 









Legend :    VFR   Marginal VFR   IFR   Intensive IFR   Very Intensive IFR
Visi :
Ceiling :
>= 8 km
>= 3000ft
5 to 8 km
1000 to 3000 ft
1500m to 5 km
500 to 1000 ft
800 to 1500m
200 to 500 ft
< 800m
< 200 ft
Symbols :   Thunderstorms  Fog  Heavy snow  Heavy precipitations  Wind > 20 kt






- Airport Elevation : 913 ft


KRDR - Grand Forks Air Force Base

CURRENT METAR :
  • 291256Z AUTO 12005KT 10SM BKN100 14/10 A3006 RMK AO2 SLP184 T01420102 FZRANO $

EXPIRED METARs :
  • 291156Z AUTO 13008KT 10SM BKN110 13/10 A3006 RMK AO2 SLP185 T01340100 10137 20099 57004 FZRANO $
  • 291056Z AUTO 13007KT 10SM BKN110 13/10 A3006 RMK AO2 SLP185 T01280098 FZRANO $
  • 290956Z AUTO 13004KT 10SM CLR 12/10 A3007 RMK AO2 SLP188 T01230095 FZRANO $

TAF TAF KRDR
Valid from the 29 at 10:00 until the 30 at 16:00 UTC


291000Z 2910/3016 VRB06KT 9999 FEW050 BKN100 QNH2988INS
BECMG 2913/2914 15012G20KT 8000 -SHRA BKN100 QNH2969INS
TEMPO 2914/2917 15012G25KT 6000 -TSRA BKN050CB
BECMG 2917/2918 15020G30KT 9999 NSW BKN080 510002 QNH2959INS
BECMG 2922/2923 16012KT 9999 SCT080 QNH2959INS
TEMPO 3002/3006 VRB20G35KT 4800 TSRA BKN040CB TX28/2923Z TN12/2910Z
KZMP FIR / North America



MET'MAP, your aeronautical weather chart ! - Copyright ORBIFLY December 2007 - Disclaimer

ORBIFLY MET'MAP TEAM :

Programming & Development : Alexandra Zaïnal
Original concept : Baudouin d'Aumeries
Technical & hardware support : Manuel Goepfert
Assistance : Marc-Olivier Méhu




SOURCES & CREDITS :

   NOAA       Earth
Advisory